sensor_id;sensor_type;location;lat;lon;timestamp;pressure;altitude;pressure_sealevel;temperature;humidity
74708;BME280;63360;50.104;8.074;2024-01-16T00:00:20;96386.00;;;-1.42;100.00
74708;BME280;63360;50.104;8.074;2024-01-16T00:02:46;96390.59;;;-1.44;100.00
74708;BME280;63360;50.104;8.074;2024-01-16T00:05:12;96397.44;;;-1.50;100.00
74708;BME280;63360;50.104;8.074;2024-01-16T00:07:39;96399.72;;;-1.53;100.00
74708;BME280;63360;50.104;8.074;2024-01-16T00:10:09;96398.44;;;-1.51;100.00
74708;BME280;63360;50.104;8.074;2024-01-16T00:12:35;96399.19;;;-1.60;100.00
74708;BME280;63360;50.104;8.074;2024-01-16T00:15:02;96410.16;;;-1.60;100.00
74708;BME280;63360;50.104;8.074;2024-01-16T00:17:28;96395.81;;;-1.66;100.00
74708;BME280;63360;50.104;8.074;2024-01-16T00:19:55;96397.31;;;-1.70;100.00
74708;BME280;63360;50.104;8.074;2024-01-16T00:22:21;96413.38;;;-1.69;100.00
74708;BME280;63360;50.104;8.074;2024-01-16T00:24:47;96421.25;;;-1.76;100.00
74708;BME280;63360;50.104;8.074;2024-01-16T00:27:14;96407.03;;;-1.67;100.00
74708;BME280;63360;50.104;8.074;2024-01-16T00:29:40;96406.06;;;-1.56;100.00
74708;BME280;63360;50.104;8.074;2024-01-16T00:32:07;96420.09;;;-1.58;100.00
74708;BME280;63360;50.104;8.074;2024-01-16T00:34:34;96420.53;;;-1.66;100.00
74708;BME280;63360;50.104;8.074;2024-01-16T00:37:00;96406.22;;;-1.72;100.00
74708;BME280;63360;50.104;8.074;2024-01-16T00:39:26;96424.09;;;-1.67;100.00
74708;BME280;63360;50.104;8.074;2024-01-16T00:41:53;96425.59;;;-1.71;100.00
74708;BME280;63360;50.104;8.074;2024-01-16T00:44:19;96421.22;;;-1.81;100.00
74708;BME280;63360;50.104;8.074;2024-01-16T00:46:46;96424.03;;;-1.77;100.00
74708;BME280;63360;50.104;8.074;2024-01-16T00:49:12;96430.31;;;-1.53;100.00
74708;BME280;63360;50.104;8.074;2024-01-16T00:51:38;96431.56;;;-1.56;100.00
74708;BME280;63360;50.104;8.074;2024-01-16T00:54:05;96428.75;;;-1.54;100.00
74708;BME280;63360;50.104;8.074;2024-01-16T00:56:35;96432.06;;;-1.59;100.00
74708;BME280;63360;50.104;8.074;2024-01-16T00:59:02;96420.66;;;-1.46;100.00
74708;BME280;63360;50.104;8.074;2024-01-16T01:01:28;96424.75;;;-1.45;100.00
74708;BME280;63360;50.104;8.074;2024-01-16T01:03:55;96425.72;;;-1.51;100.00
74708;BME280;63360;50.104;8.074;2024-01-16T01:06:21;96423.72;;;-1.49;100.00
74708;BME280;63360;50.104;8.074;2024-01-16T01:08:48;96421.41;;;-1.51;100.00
74708;BME280;63360;50.104;8.074;2024-01-16T01:11:14;96424.47;;;-1.49;100.00
74708;BME280;63360;50.104;8.074;2024-01-16T01:13:41;96432.91;;;-1.43;100.00
74708;BME280;63360;50.104;8.074;2024-01-16T01:16:07;96431.91;;;-1.42;100.00
74708;BME280;63360;50.104;8.074;2024-01-16T01:18:34;96428.84;;;-1.44;100.00
74708;BME280;63360;50.104;8.074;2024-01-16T01:21:01;96427.63;;;-1.37;100.00
74708;BME280;63360;50.104;8.074;2024-01-16T01:23:27;96421.88;;;-1.54;100.00
74708;BME280;63360;50.104;8.074;2024-01-16T01:25:54;96434.19;;;-1.46;100.00
74708;BME280;63360;50.104;8.074;2024-01-16T01:28:20;96433.97;;;-1.39;100.00
74708;BME280;63360;50.104;8.074;2024-01-16T01:30:47;96437.84;;;-1.32;100.00
74708;BME280;63360;50.104;8.074;2024-01-16T01:33:13;96440.13;;;-1.30;100.00
74708;BME280;63360;50.104;8.074;2024-01-16T01:35:40;96446.50;;;-1.33;100.00
74708;BME280;63360;50.104;8.074;2024-01-16T01:38:06;96446.00;;;-1.30;100.00
74708;BME280;63360;50.104;8.074;2024-01-16T01:40:34;96434.47;;;-1.42;100.00
74708;BME280;63360;50.104;8.074;2024-01-16T01:43:17;96447.53;;;-1.34;100.00
74708;BME280;63360;50.104;8.074;2024-01-16T01:45:44;96444.78;;;-1.22;100.00
74708;BME280;63360;50.104;8.074;2024-01-16T01:48:10;96452.38;;;-1.32;100.00
74708;BME280;63360;50.104;8.074;2024-01-16T01:50:37;96446.25;;;-1.36;100.00
74708;BME280;63360;50.104;8.074;2024-01-16T01:53:04;96445.75;;;-1.33;100.00
74708;BME280;63360;50.104;8.074;2024-01-16T01:55:30;96455.44;;;-1.30;100.00
74708;BME280;63360;50.104;8.074;2024-01-16T01:57:57;96443.16;;;-1.38;100.00
74708;BME280;63360;50.104;8.074;2024-01-16T02:00:23;96448.53;;;-1.35;100.00
74708;BME280;63360;50.104;8.074;2024-01-16T02:02:50;96456.53;;;-1.21;100.00
74708;BME280;63360;50.104;8.074;2024-01-16T02:05:17;96455.19;;;-1.34;100.00
74708;BME280;63360;50.104;8.074;2024-01-16T02:07:44;96457.97;;;-1.35;100.00
74708;BME280;63360;50.104;8.074;2024-01-16T02:10:10;96473.03;;;-1.34;100.00
74708;BME280;63360;50.104;8.074;2024-01-16T02:12:37;96470.53;;;-1.29;100.00
74708;BME280;63360;50.104;8.074;2024-01-16T02:15:03;96476.88;;;-1.31;100.00
74708;BME280;63360;50.104;8.074;2024-01-16T02:17:30;96483.25;;;-1.34;100.00
74708;BME280;63360;50.104;8.074;2024-01-16T02:19:56;96473.84;;;-1.28;100.00
74708;BME280;63360;50.104;8.074;2024-01-16T02:22:25;96471.03;;;-1.27;100.00
74708;BME280;63360;50.104;8.074;2024-01-16T02:24:55;96478.97;;;-1.23;100.00
74708;BME280;63360;50.104;8.074;2024-01-16T02:27:22;96482.47;;;-1.34;100.00
74708;BME280;63360;50.104;8.074;2024-01-16T02:29:48;96471.28;;;-1.28;100.00
74708;BME280;63360;50.104;8.074;2024-01-16T02:32:15;96471.53;;;-1.30;100.00
74708;BME280;63360;50.104;8.074;2024-01-16T02:34:42;96476.41;;;-1.28;100.00
74708;BME280;63360;50.104;8.074;2024-01-16T02:37:09;96477.88;;;-1.32;100.00
74708;BME280;63360;50.104;8.074;2024-01-16T02:39:36;96464.16;;;-1.26;100.00
74708;BME280;63360;50.104;8.074;2024-01-16T02:42:02;96461.13;;;-1.23;100.00
74708;BME280;63360;50.104;8.074;2024-01-16T02:44:28;96467.97;;;-1.29;100.00
74708;BME280;63360;50.104;8.074;2024-01-16T02:46:55;96462.88;;;-1.24;100.00
74708;BME280;63360;50.104;8.074;2024-01-16T02:49:21;96467.44;;;-1.31;100.00
74708;BME280;63360;50.104;8.074;2024-01-16T02:51:48;96462.28;;;-1.36;100.00
74708;BME280;63360;50.104;8.074;2024-01-16T02:54:15;96477.72;;;-1.20;100.00
74708;BME280;63360;50.104;8.074;2024-01-16T02:56:41;96475.88;;;-1.25;100.00
74708;BME280;63360;50.104;8.074;2024-01-16T02:59:08;96467.19;;;-1.29;100.00
74708;BME280;63360;50.104;8.074;2024-01-16T03:01:35;96477.75;;;-1.15;100.00
74708;BME280;63360;50.104;8.074;2024-01-16T03:04:01;96476.44;;;-1.18;100.00
74708;BME280;63360;50.104;8.074;2024-01-16T03:06:28;96486.66;;;-1.18;100.00
74708;BME280;63360;50.104;8.074;2024-01-16T03:08:56;96486.13;;;-1.20;100.00
74708;BME280;63360;50.104;8.074;2024-01-16T03:11:22;96482.78;;;-1.26;100.00
74708;BME280;63360;50.104;8.074;2024-01-16T03:13:49;96484.25;;;-1.35;100.00
74708;BME280;63360;50.104;8.074;2024-01-16T03:16:19;96493.53;;;-1.18;100.00
74708;BME280;63360;50.104;8.074;2024-01-16T03:18:45;96487.88;;;-1.26;100.00
74708;BME280;63360;50.104;8.074;2024-01-16T03:21:13;96482.31;;;-1.23;100.00
74708;BME280;63360;50.104;8.074;2024-01-16T03:23:39;96478.38;;;-1.35;100.00
74708;BME280;63360;50.104;8.074;2024-01-16T03:26:06;96485.78;;;-1.34;100.00
74708;BME280;63360;50.104;8.074;2024-01-16T03:28:32;96488.84;;;-1.37;100.00
74708;BME280;63360;50.104;8.074;2024-01-16T03:30:58;96490.31;;;-1.41;100.00
74708;BME280;63360;50.104;8.074;2024-01-16T03:33:25;96491.13;;;-1.35;100.00
74708;BME280;63360;50.104;8.074;2024-01-16T03:35:52;96490.13;;;-1.34;100.00
74708;BME280;63360;50.104;8.074;2024-01-16T03:38:18;96484.19;;;-1.45;100.00
74708;BME280;63360;50.104;8.074;2024-01-16T03:40:45;96490.25;;;-1.51;100.00
74708;BME280;63360;50.104;8.074;2024-01-16T03:43:11;96482.31;;;-1.54;100.00
74708;BME280;63360;50.104;8.074;2024-01-16T03:45:38;96497.63;;;-1.54;100.00
74708;BME280;63360;50.104;8.074;2024-01-16T03:48:05;96482.06;;;-1.58;100.00
74708;BME280;63360;50.104;8.074;2024-01-16T03:50:31;96495.00;;;-1.64;100.00
74708;BME280;63360;50.104;8.074;2024-01-16T03:53:00;96494.78;;;-1.63;100.00
74708;BME280;63360;50.104;8.074;2024-01-16T03:55:26;96489.41;;;-1.61;100.00
74708;BME280;63360;50.104;8.074;2024-01-16T03:57:52;96486.50;;;-1.75;100.00
74708;BME280;63360;50.104;8.074;2024-01-16T04:00:19;96492.34;;;-1.79;100.00
74708;BME280;63360;50.104;8.074;2024-01-16T04:02:45;96505.69;;;-1.67;100.00
74708;BME280;63360;50.104;8.074;2024-01-16T04:05:12;96492.13;;;-1.73;100.00
74708;BME280;63360;50.104;8.074;2024-01-16T04:07:39;96508.53;;;-1.64;100.00
74708;BME280;63360;50.104;8.074;2024-01-16T04:10:06;96493.19;;;-1.69;100.00
74708;BME280;63360;50.104;8.074;2024-01-16T04:12:33;96502.91;;;-1.66;100.00
74708;BME280;63360;50.104;8.074;2024-01-16T04:14:59;96503.19;;;-1.62;100.00
74708;BME280;63360;50.104;8.074;2024-01-16T04:17:25;96493.47;;;-1.65;100.00
74708;BME280;63360;50.104;8.074;2024-01-16T04:19:52;96493.72;;;-1.67;100.00
74708;BME280;63360;50.104;8.074;2024-01-16T04:22:18;96498.81;;;-1.67;100.00
74708;BME280;63360;50.104;8.074;2024-01-16T04:24:45;96513.88;;;-1.65;100.00
74708;BME280;63360;50.104;8.074;2024-01-16T04:27:12;96499.72;;;-1.78;100.00
74708;BME280;63360;50.104;8.074;2024-01-16T04:29:38;96507.22;;;-1.66;100.00
74708;BME280;63360;50.104;8.074;2024-01-16T04:32:04;96515.16;;;-1.63;100.00
74708;BME280;63360;50.104;8.074;2024-01-16T04:34:31;96507.97;;;-1.71;100.00
74708;BME280;63360;50.104;8.074;2024-01-16T04:36:57;96520.97;;;-1.67;100.00
74708;BME280;63360;50.104;8.074;2024-01-16T04:39:24;96493.47;;;-1.65;100.00
74708;BME280;63360;50.104;8.074;2024-01-16T04:41:50;96504.47;;;-1.60;100.00
74708;BME280;63360;50.104;8.074;2024-01-16T04:44:16;96500.34;;;-1.66;100.00
74708;BME280;63360;50.104;8.074;2024-01-16T04:46:43;96509.22;;;-1.42;100.00
74708;BME280;63360;50.104;8.074;2024-01-16T04:49:09;96499.91;;;-1.58;100.00
74708;BME280;63360;50.104;8.074;2024-01-16T04:51:36;96508.13;;;-1.46;100.00
74708;BME280;63360;50.104;8.074;2024-01-16T04:54:02;96489.78;;;-1.48;100.00
74708;BME280;63360;50.104;8.074;2024-01-16T04:56:29;96504.38;;;-1.38;100.00
74708;BME280;63360;50.104;8.074;2024-01-16T04:58:55;96494.38;;;-1.45;100.00
74708;BME280;63360;50.104;8.074;2024-01-16T05:01:22;96498.44;;;-1.49;100.00
74708;BME280;63360;50.104;8.074;2024-01-16T05:03:48;96491.47;;;-1.58;100.00
74708;BME280;63360;50.104;8.074;2024-01-16T05:06:15;96502.06;;;-1.40;100.00
74708;BME280;63360;50.104;8.074;2024-01-16T05:08:42;96487.22;;;-1.48;100.00
74708;BME280;63360;50.104;8.074;2024-01-16T05:11:09;96484.31;;;-1.61;100.00
74708;BME280;63360;50.104;8.074;2024-01-16T05:13:35;96484.28;;;-1.66;100.00
74708;BME280;63360;50.104;8.074;2024-01-16T05:16:02;96471.50;;;-1.71;100.00
74708;BME280;63360;50.104;8.074;2024-01-16T05:18:28;96489.63;;;-1.68;100.00
74708;BME280;63360;50.104;8.074;2024-01-16T05:20:55;96491.78;;;-1.55;100.00
74708;BME280;63360;50.104;8.074;2024-01-16T05:23:25;96491.81;;;-1.50;100.00
74708;BME280;63360;50.104;8.074;2024-01-16T05:25:51;96473.34;;;-1.62;100.00
74708;BME280;63360;50.104;8.074;2024-01-16T05:28:17;96483.94;;;-1.43;100.00
74708;BME280;63360;50.104;8.074;2024-01-16T05:30:44;96478.47;;;-1.57;100.00
74708;BME280;63360;50.104;8.074;2024-01-16T05:33:10;96479.56;;;-1.48;100.00
74708;BME280;63360;50.104;8.074;2024-01-16T05:35:37;96471.38;;;-1.55;100.00
74708;BME280;63360;50.104;8.074;2024-01-16T05:38:04;96473.66;;;-1.53;100.00
74708;BME280;63360;50.104;8.074;2024-01-16T05:40:30;96487.78;;;-1.41;100.00
74708;BME280;63360;50.104;8.074;2024-01-16T05:42:57;96488.31;;;-1.39;100.00
74708;BME280;63360;50.104;8.074;2024-01-16T05:45:24;96484.97;;;-1.44;100.00
74708;BME280;63360;50.104;8.074;2024-01-16T05:47:50;96470.59;;;-1.55;100.00
74708;BME280;63360;50.104;8.074;2024-01-16T05:50:16;96469.53;;;-1.59;100.00
74708;BME280;63360;50.104;8.074;2024-01-16T05:52:44;96466.47;;;-1.61;100.00
74708;BME280;63360;50.104;8.074;2024-01-16T05:55:12;96456.22;;;-1.66;100.00
74708;BME280;63360;50.104;8.074;2024-01-16T05:57:39;96465.69;;;-1.62;100.00
74708;BME280;63360;50.104;8.074;2024-01-16T06:00:06;96444.28;;;-1.61;100.00
74708;BME280;63360;50.104;8.074;2024-01-16T06:02:32;96447.94;;;-1.52;100.00
74708;BME280;63360;50.104;8.074;2024-01-16T06:04:59;96434.06;;;-1.66;100.00
74708;BME280;63360;50.104;8.074;2024-01-16T06:07:25;96444.91;;;-1.44;100.00
74708;BME280;63360;50.104;8.074;2024-01-16T06:09:52;96437.75;;;-1.47;100.00
74708;BME280;63360;50.104;8.074;2024-01-16T06:12:18;96436.16;;;-1.58;100.00
74708;BME280;63360;50.104;8.074;2024-01-16T06:14:44;96443.53;;;-1.61;100.00
74708;BME280;63360;50.104;8.074;2024-01-16T06:17:11;96437.94;;;-1.58;100.00
74708;BME280;63360;50.104;8.074;2024-01-16T06:19:37;96430.19;;;-1.73;100.00
74708;BME280;63360;50.104;8.074;2024-01-16T06:22:05;96443.75;;;-1.68;100.00
74708;BME280;63360;50.104;8.074;2024-01-16T06:24:31;96441.66;;;-1.76;100.00
74708;BME280;63360;50.104;8.074;2024-01-16T06:27:06;96446.38;;;-1.90;100.00
74708;BME280;63360;50.104;8.074;2024-01-16T06:29:33;96432.81;;;-1.95;100.00
74708;BME280;63360;50.104;8.074;2024-01-16T06:32:01;96430.84;;;-1.88;100.00
74708;BME280;63360;50.104;8.074;2024-01-16T06:34:28;96424.91;;;-1.99;100.00
74708;BME280;63360;50.104;8.074;2024-01-16T06:36:54;96427.69;;;-2.00;100.00
74708;BME280;63360;50.104;8.074;2024-01-16T06:39:21;96429.44;;;-2.06;100.00
74708;BME280;63360;50.104;8.074;2024-01-16T06:41:47;96421.44;;;-2.14;100.00
74708;BME280;63360;50.104;8.074;2024-01-16T06:44:14;96428.84;;;-2.13;100.00
74708;BME280;63360;50.104;8.074;2024-01-16T06:46:40;96437.50;;;-2.14;100.00
74708;BME280;63360;50.104;8.074;2024-01-16T06:49:07;96419.31;;;-2.27;100.00
74708;BME280;63360;50.104;8.074;2024-01-16T06:51:33;96436.88;;;-2.26;100.00
74708;BME280;63360;50.104;8.074;2024-01-16T06:54:00;96425.00;;;-2.42;100.00
74708;BME280;63360;50.104;8.074;2024-01-16T06:56:26;96437.81;;;-2.37;100.00
74708;BME280;63360;50.104;8.074;2024-01-16T06:58:53;96426.69;;;-2.53;100.00
74708;BME280;63360;50.104;8.074;2024-01-16T07:01:19;96441.44;;;-2.55;100.00
74708;BME280;63360;50.104;8.074;2024-01-16T07:03:45;96441.69;;;-2.56;100.00
74708;BME280;63360;50.104;8.074;2024-01-16T07:06:12;96440.34;;;-2.64;100.00
74708;BME280;63360;50.104;8.074;2024-01-16T07:08:38;96435.91;;;-2.73;100.00
74708;BME280;63360;50.104;8.074;2024-01-16T07:11:05;96438.16;;;-2.77;100.00
74708;BME280;63360;50.104;8.074;2024-01-16T07:13:34;96447.31;;;-2.76;100.00
74708;BME280;63360;50.104;8.074;2024-01-16T07:16:01;96445.72;;;-2.82;100.00
74708;BME280;63360;50.104;8.074;2024-01-16T07:18:28;96454.19;;;-2.76;100.00
74708;BME280;63360;50.104;8.074;2024-01-16T07:20:54;96442.91;;;-2.85;100.00
74708;BME280;63360;50.104;8.074;2024-01-16T07:23:21;96439.06;;;-2.88;100.00
74708;BME280;63360;50.104;8.074;2024-01-16T07:25:47;96447.75;;;-2.84;100.00
74708;BME280;63360;50.104;8.074;2024-01-16T07:28:14;96448.97;;;-2.86;100.00
74708;BME280;63360;50.104;8.074;2024-01-16T07:30:41;96454.91;;;-2.81;100.00
74708;BME280;63360;50.104;8.074;2024-01-16T07:33:07;96445.81;;;-2.98;100.00
74708;BME280;63360;50.104;8.074;2024-01-16T07:35:34;96448.56;;;-3.00;100.00
74708;BME280;63360;50.104;8.074;2024-01-16T07:38:00;96460.50;;;-3.00;100.00
74708;BME280;63360;50.104;8.074;2024-01-16T07:40:30;96452.28;;;-3.08;100.00
74708;BME280;63360;50.104;8.074;2024-01-16T07:42:56;96460.91;;;-3.09;100.00
74708;BME280;63360;50.104;8.074;2024-01-16T07:45:24;96444.91;;;-3.09;100.00
74708;BME280;63360;50.104;8.074;2024-01-16T07:47:50;96449.44;;;-3.11;100.00
74708;BME280;63360;50.104;8.074;2024-01-16T07:50:16;96464.44;;;-2.93;100.00
74708;BME280;63360;50.104;8.074;2024-01-16T07:52:43;96458.84;;;-2.90;100.00
74708;BME280;63360;50.104;8.074;2024-01-16T07:55:09;96464.50;;;-2.88;100.00
74708;BME280;63360;50.104;8.074;2024-01-16T07:57:36;96451.47;;;-2.91;100.00
74708;BME280;63360;50.104;8.074;2024-01-16T08:00:02;96466.91;;;-2.76;100.00
74708;BME280;63360;50.104;8.074;2024-01-16T08:02:32;96464.91;;;-2.74;100.00
74708;BME280;63360;50.104;8.074;2024-01-16T08:05:00;96471.38;;;-2.67;100.00
74708;BME280;63360;50.104;8.074;2024-01-16T08:07:27;96470.13;;;-2.64;100.00
74708;BME280;63360;50.104;8.074;2024-01-16T08:09:53;96467.38;;;-2.58;100.00
74708;BME280;63360;50.104;8.074;2024-01-16T08:12:19;96486.78;;;-2.52;100.00
74708;BME280;63360;50.104;8.074;2024-01-16T08:14:46;96478.38;;;-2.52;100.00
74708;BME280;63360;50.104;8.074;2024-01-16T08:17:12;96482.53;;;-2.46;100.00
74708;BME280;63360;50.104;8.074;2024-01-16T08:19:39;96496.88;;;-2.40;100.00
74708;BME280;63360;50.104;8.074;2024-01-16T08:22:05;96471.72;;;-2.31;100.00
74708;BME280;63360;50.104;8.074;2024-01-16T08:24:34;96489.94;;;-2.18;100.00
74708;BME280;63360;50.104;8.074;2024-01-16T08:27:01;96481.25;;;-2.22;100.00
74708;BME280;63360;50.104;8.074;2024-01-16T08:29:27;96490.38;;;-1.99;100.00
74708;BME280;63360;50.104;8.074;2024-01-16T08:31:54;96491.00;;;-1.87;100.00
74708;BME280;63360;50.104;8.074;2024-01-16T08:34:20;96495.91;;;-1.75;100.00
74708;BME280;63360;50.104;8.074;2024-01-16T08:36:47;96500.47;;;-1.83;100.00
74708;BME280;63360;50.104;8.074;2024-01-16T08:39:13;96498.34;;;-1.91;100.00
74708;BME280;63360;50.104;8.074;2024-01-16T08:41:39;96501.75;;;-1.80;100.00
74708;BME280;63360;50.104;8.074;2024-01-16T08:44:06;96510.25;;;-1.69;100.00
74708;BME280;63360;50.104;8.074;2024-01-16T08:46:32;96511.56;;;-1.67;100.00
74708;BME280;63360;50.104;8.074;2024-01-16T08:48:58;96509.00;;;-1.67;100.00
74708;BME280;63360;50.104;8.074;2024-01-16T08:51:25;96494.47;;;-1.66;100.00
74708;BME280;63360;50.104;8.074;2024-01-16T08:53:52;96494.28;;;-1.60;100.00
74708;BME280;63360;50.104;8.074;2024-01-16T08:56:18;96490.47;;;-1.57;100.00
74708;BME280;63360;50.104;8.074;2024-01-16T08:58:45;96498.34;;;-1.59;100.00
74708;BME280;63360;50.104;8.074;2024-01-16T09:01:12;96488.91;;;-1.63;100.00
74708;BME280;63360;50.104;8.074;2024-01-16T09:03:38;96490.44;;;-1.62;100.00
74708;BME280;63360;50.104;8.074;2024-01-16T09:06:05;96491.97;;;-1.61;100.00
74708;BME280;63360;50.104;8.074;2024-01-16T09:08:31;96494.81;;;-1.58;100.00
74708;BME280;63360;50.104;8.074;2024-01-16T09:10:58;96484.28;;;-1.66;100.00
74708;BME280;63360;50.104;8.074;2024-01-16T09:13:24;96495.28;;;-1.61;100.00
74708;BME280;63360;50.104;8.074;2024-01-16T09:15:51;96488.78;;;-1.78;100.00
74708;BME280;63360;50.104;8.074;2024-01-16T09:18:17;96488.13;;;-1.64;100.00
74708;BME280;63360;50.104;8.074;2024-01-16T09:20:44;96486.31;;;-1.68;100.00
74708;BME280;63360;50.104;8.074;2024-01-16T09:23:10;96500.91;;;-1.59;100.00
74708;BME280;63360;50.104;8.074;2024-01-16T09:25:37;96509.06;;;-1.57;100.00
74708;BME280;63360;50.104;8.074;2024-01-16T09:28:03;96502.91;;;-1.66;100.00
74708;BME280;63360;50.104;8.074;2024-01-16T09:30:30;96496.22;;;-1.72;100.00
74708;BME280;63360;50.104;8.074;2024-01-16T09:32:56;96508.56;;;-1.59;100.00
74708;BME280;63360;50.104;8.074;2024-01-16T09:35:23;96507.75;;;-1.64;100.00
74708;BME280;63360;50.104;8.074;2024-01-16T09:37:49;96512.63;;;-1.63;100.00
74708;BME280;63360;50.104;8.074;2024-01-16T09:40:17;96512.66;;;-1.58;100.00
74708;BME280;63360;50.104;8.074;2024-01-16T09:42:43;96521.38;;;-1.49;100.00
74708;BME280;63360;50.104;8.074;2024-01-16T09:45:11;96526.31;;;-1.37;100.00
74708;BME280;63360;50.104;8.074;2024-01-16T09:47:47;96527.63;;;-1.35;100.00
74708;BME280;63360;50.104;8.074;2024-01-16T09:50:19;96537.63;;;-1.28;100.00
74708;BME280;63360;50.104;8.074;2024-01-16T09:52:46;96530.78;;;-1.23;100.00
74708;BME280;63360;50.104;8.074;2024-01-16T09:55:15;96530.94;;;-1.34;100.00
74708;BME280;63360;50.104;8.074;2024-01-16T09:57:45;96528.94;;;-1.27;100.00
74708;BME280;63360;50.104;8.074;2024-01-16T10:00:12;96527.19;;;-1.22;100.00
74708;BME280;63360;50.104;8.074;2024-01-16T10:02:39;96529.50;;;-1.20;100.00
74708;BME280;63360;50.104;8.074;2024-01-16T10:05:10;96520.00;;;-1.30;100.00
74708;BME280;63360;50.104;8.074;2024-01-16T10:07:38;96529.25;;;-1.18;100.00
74708;BME280;63360;50.104;8.074;2024-01-16T10:10:05;96512.91;;;-1.23;100.00
74708;BME280;63360;50.104;8.074;2024-01-16T10:12:33;96530.53;;;-1.16;100.00
74708;BME280;63360;50.104;8.074;2024-01-16T10:14:59;96520.59;;;-1.17;100.00
74708;BME280;63360;50.104;8.074;2024-01-16T10:20:03;96503.78;;;-1.08;100.00
74708;BME280;63360;50.104;8.074;2024-01-16T10:22:33;96515.56;;;-1.02;100.00
74708;BME280;63360;50.104;8.074;2024-01-16T10:25:12;96498.50;;;-1.02;100.00
74708;BME280;63360;50.104;8.074;2024-01-16T10:27:43;96497.19;;;-1.04;100.00
74708;BME280;63360;50.104;8.074;2024-01-16T10:30:09;96493.63;;;-0.98;100.00
74708;BME280;63360;50.104;8.074;2024-01-16T10:32:41;96509.06;;;-0.83;100.00
74708;BME280;63360;50.104;8.074;2024-01-16T10:35:12;96506.03;;;-0.75;100.00
74708;BME280;63360;50.104;8.074;2024-01-16T10:37:47;96509.13;;;-0.63;100.00
74708;BME280;63360;50.104;8.074;2024-01-16T10:40:21;96492.69;;;-0.82;100.00
74708;BME280;63360;50.104;8.074;2024-01-16T10:43:01;96501.94;;;-0.76;100.00
74708;BME280;63360;50.104;8.074;2024-01-16T10:45:27;96505.00;;;-0.74;100.00
74708;BME280;63360;50.104;8.074;2024-01-16T10:48:04;96495.31;;;-0.72;100.00
74708;BME280;63360;50.104;8.074;2024-01-16T10:50:33;96484.56;;;-0.74;100.00
74708;BME280;63360;50.104;8.074;2024-01-16T10:53:04;96490.72;;;-0.75;100.00
74708;BME280;63360;50.104;8.074;2024-01-16T10:55:31;96487.88;;;-0.79;100.00
74708;BME280;63360;50.104;8.074;2024-01-16T10:57:58;96488.63;;;-0.83;100.00
74708;BME280;63360;50.104;8.074;2024-01-16T11:00:27;96488.13;;;-0.80;100.00
74708;BME280;63360;50.104;8.074;2024-01-16T11:03:01;96471.78;;;-0.79;100.00
74708;BME280;63360;50.104;8.074;2024-01-16T11:05:31;96476.91;;;-0.69;100.00
74708;BME280;63360;50.104;8.074;2024-01-16T11:08:00;96461.66;;;-0.59;100.00
74708;BME280;63360;50.104;8.074;2024-01-16T11:10:31;96471.38;;;-0.51;100.00
74708;BME280;63360;50.104;8.074;2024-01-16T11:13:00;96457.88;;;-0.26;100.00
74708;BME280;63360;50.104;8.074;2024-01-16T11:15:28;96461.50;;;-0.17;100.00
74708;BME280;63360;50.104;8.074;2024-01-16T11:17:59;96451.53;;;-0.04;100.00
74708;BME280;63360;50.104;8.074;2024-01-16T11:20:26;96461.28;;;0.10;100.00
74708;BME280;63360;50.104;8.074;2024-01-16T11:23:14;96442.34;;;0.31;100.00
74708;BME280;63360;50.104;8.074;2024-01-16T11:25:40;96439.53;;;0.32;100.00
74708;BME280;63360;50.104;8.074;2024-01-16T11:28:13;96430.81;;;0.48;100.00
74708;BME280;63360;50.104;8.074;2024-01-16T11:30:40;96439.25;;;0.54;100.00
74708;BME280;63360;50.104;8.074;2024-01-16T11:36:00;96414.78;;;1.07;100.00
74708;BME280;63360;50.104;8.074;2024-01-16T11:38:26;96425.06;;;0.97;100.00
74708;BME280;63360;50.104;8.074;2024-01-16T11:40:53;96417.69;;;0.90;100.00
74708;BME280;63360;50.104;8.074;2024-01-16T11:46:02;96423.56;;;0.81;100.00
74708;BME280;63360;50.104;8.074;2024-01-16T11:48:28;96398.22;;;0.89;100.00
74708;BME280;63360;50.104;8.074;2024-01-16T11:50:55;96396.41;;;0.95;100.00
74708;BME280;63360;50.104;8.074;2024-01-16T11:53:37;96411.78;;;0.95;100.00
74708;BME280;63360;50.104;8.074;2024-01-16T11:56:28;96399.44;;;1.02;100.00
74708;BME280;63360;50.104;8.074;2024-01-16T11:59:32;96386.34;;;1.13;100.00
74708;BME280;63360;50.104;8.074;2024-01-16T12:02:11;96398.34;;;1.18;100.00
74708;BME280;63360;50.104;8.074;2024-01-16T12:04:40;96394.63;;;0.85;100.00
74708;BME280;63360;50.104;8.074;2024-01-16T12:07:06;96371.22;;;0.48;100.00
74708;BME280;63360;50.104;8.074;2024-01-16T12:09:33;96390.66;;;0.49;100.00
74708;BME280;63360;50.104;8.074;2024-01-16T12:12:01;96392.72;;;0.27;100.00
74708;BME280;63360;50.104;8.074;2024-01-16T12:14:28;96393.75;;;0.26;100.00
74708;BME280;63360;50.104;8.074;2024-01-16T12:17:11;96395.81;;;0.14;100.00
74708;BME280;63360;50.104;8.074;2024-01-16T12:19:38;96371.28;;;-0.13;100.00
74708;BME280;63360;50.104;8.074;2024-01-16T12:22:10;96402.44;;;-0.11;100.00
74708;BME280;63360;50.104;8.074;2024-01-16T12:24:39;96387.13;;;-0.06;100.00
74708;BME280;63360;50.104;8.074;2024-01-16T12:27:05;96391.72;;;-0.08;100.00
74708;BME280;63360;50.104;8.074;2024-01-16T12:29:32;96382.53;;;-0.19;100.00
74708;BME280;63360;50.104;8.074;2024-01-16T12:32:11;96376.88;;;-0.21;100.00
74708;BME280;63360;50.104;8.074;2024-01-16T12:34:46;96374.59;;;-0.07;100.00
74708;BME280;63360;50.104;8.074;2024-01-16T12:37:14;96373.81;;;0.23;100.00
74708;BME280;63360;50.104;8.074;2024-01-16T12:39:41;96371.22;;;0.38;100.00
74708;BME280;63360;50.104;8.074;2024-01-16T12:42:09;96364.56;;;0.42;100.00
74708;BME280;63360;50.104;8.074;2024-01-16T12:44:39;96365.06;;;0.49;100.00
74708;BME280;63360;50.104;8.074;2024-01-16T12:47:05;96371.50;;;0.31;100.00
74708;BME280;63360;50.104;8.074;2024-01-16T12:49:32;96356.41;;;0.30;100.00
74708;BME280;63360;50.104;8.074;2024-01-16T12:52:18;96353.06;;;0.39;100.00
74708;BME280;63360;50.104;8.074;2024-01-16T12:54:45;96335.94;;;0.30;100.00
74708;BME280;63360;50.104;8.074;2024-01-16T12:57:16;96336.44;;;0.37;100.00
74708;BME280;63360;50.104;8.074;2024-01-16T12:59:43;96337.44;;;0.41;100.00